sensor_id;sensor_type;location;lat;lon;timestamp;P1;durP1;ratioP1;P2;durP2;ratioP2
29200;SDS011;16244;51.956;12.980;2023-05-16T00:00:51;533.83;;;480.17;;
29200;SDS011;16244;51.956;12.980;2023-05-16T00:03:20;525.10;;;473.10;;
29200;SDS011;16244;51.956;12.980;2023-05-16T00:05:48;481.80;;;432.53;;
29200;SDS011;16244;51.956;12.980;2023-05-16T00:08:16;549.17;;;494.80;;
29200;SDS011;16244;51.956;12.980;2023-05-16T00:10:44;573.20;;;516.60;;
29200;SDS011;16244;51.956;12.980;2023-05-16T00:13:12;556.57;;;502.87;;
29200;SDS011;16244;51.956;12.980;2023-05-16T00:15:41;557.40;;;502.97;;
29200;SDS011;16244;51.956;12.980;2023-05-16T00:18:10;517.17;;;467.33;;
29200;SDS011;16244;51.956;12.980;2023-05-16T00:20:41;583.30;;;527.67;;
29200;SDS011;16244;51.956;12.980;2023-05-16T00:23:09;557.37;;;503.50;;
29200;SDS011;16244;51.956;12.980;2023-05-16T00:25:37;558.90;;;503.63;;
29200;SDS011;16244;51.956;12.980;2023-05-16T00:28:05;553.07;;;498.87;;
29200;SDS011;16244;51.956;12.980;2023-05-16T00:30:33;560.23;;;504.73;;
29200;SDS011;16244;51.956;12.980;2023-05-16T00:33:02;564.00;;;506.33;;
29200;SDS011;16244;51.956;12.980;2023-05-16T00:35:31;518.67;;;464.03;;
29200;SDS011;16244;51.956;12.980;2023-05-16T00:37:59;516.90;;;463.47;;
29200;SDS011;16244;51.956;12.980;2023-05-16T00:40:28;535.00;;;481.23;;
29200;SDS011;16244;51.956;12.980;2023-05-16T00:42:56;539.00;;;485.10;;
29200;SDS011;16244;51.956;12.980;2023-05-16T00:45:24;561.67;;;507.70;;
29200;SDS011;16244;51.956;12.980;2023-05-16T00:47:52;537.67;;;486.37;;
29200;SDS011;16244;51.956;12.980;2023-05-16T00:50:20;538.80;;;485.90;;
29200;SDS011;16244;51.956;12.980;2023-05-16T00:52:50;533.70;;;480.13;;
29200;SDS011;16244;51.956;12.980;2023-05-16T00:55:18;500.27;;;449.67;;
29200;SDS011;16244;51.956;12.980;2023-05-16T00:57:46;474.33;;;427.53;;
29200;SDS011;16244;51.956;12.980;2023-05-16T01:00:14;478.27;;;430.13;;
29200;SDS011;16244;51.956;12.980;2023-05-16T01:02:45;463.87;;;418.03;;
29200;SDS011;16244;51.956;12.980;2023-05-16T01:05:13;492.50;;;444.00;;
29200;SDS011;16244;51.956;12.980;2023-05-16T01:07:41;510.17;;;461.07;;
29200;SDS011;16244;51.956;12.980;2023-05-16T01:10:10;496.57;;;447.57;;
29200;SDS011;16244;51.956;12.980;2023-05-16T01:12:41;462.00;;;417.17;;
29200;SDS011;16244;51.956;12.980;2023-05-16T01:15:12;438.03;;;392.77;;
29200;SDS011;16244;51.956;12.980;2023-05-16T01:17:44;472.33;;;425.67;;
29200;SDS011;16244;51.956;12.980;2023-05-16T01:20:18;436.67;;;391.97;;
29200;SDS011;16244;51.956;12.980;2023-05-16T01:22:57;474.73;;;427.40;;
29200;SDS011;16244;51.956;12.980;2023-05-16T01:25:34;464.13;;;417.00;;
29200;SDS011;16244;51.956;12.980;2023-05-16T01:28:07;502.93;;;453.97;;
29200;SDS011;16244;51.956;12.980;2023-05-16T01:30:36;501.20;;;452.23;;
29200;SDS011;16244;51.956;12.980;2023-05-16T01:33:04;460.03;;;413.13;;
29200;SDS011;16244;51.956;12.980;2023-05-16T01:35:32;483.17;;;434.97;;
29200;SDS011;16244;51.956;12.980;2023-05-16T01:38:04;511.63;;;462.60;;
29200;SDS011;16244;51.956;12.980;2023-05-16T01:40:38;479.60;;;433.07;;
29200;SDS011;16244;51.956;12.980;2023-05-16T01:43:10;517.63;;;466.97;;
29200;SDS011;16244;51.956;12.980;2023-05-16T01:45:40;476.47;;;429.93;;
29200;SDS011;16244;51.956;12.980;2023-05-16T01:48:12;480.70;;;433.50;;
29200;SDS011;16244;51.956;12.980;2023-05-16T01:50:44;497.80;;;450.57;;
29200;SDS011;16244;51.956;12.980;2023-05-16T01:53:14;463.20;;;420.33;;
29200;SDS011;16244;51.956;12.980;2023-05-16T01:55:43;469.70;;;423.60;;
29200;SDS011;16244;51.956;12.980;2023-05-16T01:58:13;456.63;;;411.67;;
29200;SDS011;16244;51.956;12.980;2023-05-16T02:00:42;441.47;;;398.40;;
29200;SDS011;16244;51.956;12.980;2023-05-16T02:03:10;423.17;;;381.30;;
29200;SDS011;16244;51.956;12.980;2023-05-16T02:05:38;460.17;;;413.10;;
29200;SDS011;16244;51.956;12.980;2023-05-16T02:08:06;457.70;;;412.50;;
29200;SDS011;16244;51.956;12.980;2023-05-16T02:10:34;492.63;;;443.53;;
29200;SDS011;16244;51.956;12.980;2023-05-16T02:13:04;435.30;;;392.73;;
29200;SDS011;16244;51.956;12.980;2023-05-16T02:15:34;443.90;;;398.07;;
29200;SDS011;16244;51.956;12.980;2023-05-16T02:18:02;437.00;;;394.00;;
29200;SDS011;16244;51.956;12.980;2023-05-16T02:20:30;413.27;;;372.80;;
29200;SDS011;16244;51.956;12.980;2023-05-16T02:22:58;437.53;;;392.53;;
29200;SDS011;16244;51.956;12.980;2023-05-16T02:25:28;475.47;;;427.50;;
29200;SDS011;16244;51.956;12.980;2023-05-16T02:27:56;436.60;;;393.03;;
29200;SDS011;16244;51.956;12.980;2023-05-16T02:30:24;460.50;;;414.80;;
29200;SDS011;16244;51.956;12.980;2023-05-16T02:32:53;410.20;;;368.43;;
29200;SDS011;16244;51.956;12.980;2023-05-16T02:35:21;462.17;;;414.97;;
29200;SDS011;16244;51.956;12.980;2023-05-16T02:37:49;415.73;;;373.90;;
29200;SDS011;16244;51.956;12.980;2023-05-16T02:40:17;473.27;;;425.83;;
29200;SDS011;16244;51.956;12.980;2023-05-16T02:42:45;438.43;;;393.37;;
29200;SDS011;16244;51.956;12.980;2023-05-16T02:45:13;448.40;;;403.13;;
29200;SDS011;16244;51.956;12.980;2023-05-16T02:47:41;446.40;;;402.30;;
29200;SDS011;16244;51.956;12.980;2023-05-16T02:50:10;424.37;;;382.40;;
29200;SDS011;16244;51.956;12.980;2023-05-16T02:52:38;428.13;;;384.87;;
29200;SDS011;16244;51.956;12.980;2023-05-16T02:55:07;426.17;;;383.57;;
29200;SDS011;16244;51.956;12.980;2023-05-16T02:57:35;432.37;;;389.27;;
29200;SDS011;16244;51.956;12.980;2023-05-16T03:00:03;390.57;;;352.20;;
29200;SDS011;16244;51.956;12.980;2023-05-16T03:02:31;432.77;;;389.67;;
29200;SDS011;16244;51.956;12.980;2023-05-16T03:04:59;425.90;;;385.43;;
29200;SDS011;16244;51.956;12.980;2023-05-16T03:07:29;424.50;;;381.37;;
29200;SDS011;16244;51.956;12.980;2023-05-16T03:09:57;413.43;;;371.73;;
29200;SDS011;16244;51.956;12.980;2023-05-16T03:12:25;426.70;;;384.90;;
29200;SDS011;16244;51.956;12.980;2023-05-16T03:14:53;417.63;;;374.67;;
29200;SDS011;16244;51.956;12.980;2023-05-16T03:17:21;421.90;;;379.67;;
29200;SDS011;16244;51.956;12.980;2023-05-16T03:19:49;429.00;;;385.97;;
29200;SDS011;16244;51.956;12.980;2023-05-16T03:22:17;443.60;;;399.40;;
29200;SDS011;16244;51.956;12.980;2023-05-16T03:24:47;413.73;;;373.63;;
29200;SDS011;16244;51.956;12.980;2023-05-16T03:27:15;487.00;;;439.80;;
29200;SDS011;16244;51.956;12.980;2023-05-16T03:29:43;428.47;;;385.40;;
29200;SDS011;16244;51.956;12.980;2023-05-16T03:32:11;404.00;;;364.87;;
29200;SDS011;16244;51.956;12.980;2023-05-16T03:34:39;418.43;;;376.53;;
29200;SDS011;16244;51.956;12.980;2023-05-16T03:37:06;380.30;;;341.43;;
29200;SDS011;16244;51.956;12.980;2023-05-16T03:39:35;412.40;;;369.30;;
29200;SDS011;16244;51.956;12.980;2023-05-16T03:42:05;396.93;;;357.57;;
29200;SDS011;16244;51.956;12.980;2023-05-16T03:44:33;410.53;;;367.77;;
29200;SDS011;16244;51.956;12.980;2023-05-16T03:47:01;389.43;;;348.50;;
29200;SDS011;16244;51.956;12.980;2023-05-16T03:49:29;396.20;;;356.83;;
29200;SDS011;16244;51.956;12.980;2023-05-16T03:51:57;406.47;;;363.30;;
29200;SDS011;16244;51.956;12.980;2023-05-16T03:54:25;502.03;;;452.83;;
29200;SDS011;16244;51.956;12.980;2023-05-16T03:56:53;573.87;;;515.63;;
29200;SDS011;16244;51.956;12.980;2023-05-16T03:59:23;489.27;;;440.57;;
29200;SDS011;16244;51.956;12.980;2023-05-16T04:01:50;436.80;;;392.93;;
29200;SDS011;16244;51.956;12.980;2023-05-16T04:04:19;461.90;;;416.83;;
29200;SDS011;16244;51.956;12.980;2023-05-16T04:06:46;353.30;;;317.10;;
29200;SDS011;16244;51.956;12.980;2023-05-16T04:09:14;619.87;;;557.47;;
29200;SDS011;16244;51.956;12.980;2023-05-16T04:11:43;472.43;;;421.63;;
29200;SDS011;16244;51.956;12.980;2023-05-16T04:14:11;537.87;;;470.60;;
29200;SDS011;16244;51.956;12.980;2023-05-16T04:16:41;358.57;;;322.00;;
29200;SDS011;16244;51.956;12.980;2023-05-16T04:19:09;326.83;;;293.20;;
29200;SDS011;16244;51.956;12.980;2023-05-16T04:21:37;337.53;;;304.13;;
29200;SDS011;16244;51.956;12.980;2023-05-16T04:24:06;342.90;;;307.87;;
29200;SDS011;16244;51.956;12.980;2023-05-16T04:26:34;314.30;;;282.50;;
29200;SDS011;16244;51.956;12.980;2023-05-16T04:29:03;418.70;;;377.90;;
29200;SDS011;16244;51.956;12.980;2023-05-16T04:31:31;349.67;;;311.80;;
29200;SDS011;16244;51.956;12.980;2023-05-16T04:34:00;325.23;;;292.07;;
29200;SDS011;16244;51.956;12.980;2023-05-16T04:36:28;342.90;;;308.90;;
29200;SDS011;16244;51.956;12.980;2023-05-16T04:38:56;309.43;;;277.87;;
29200;SDS011;16244;51.956;12.980;2023-05-16T04:41:24;256.77;;;230.97;;
29200;SDS011;16244;51.956;12.980;2023-05-16T04:43:52;403.03;;;354.40;;
29200;SDS011;16244;51.956;12.980;2023-05-16T04:46:20;686.80;;;541.53;;
29200;SDS011;16244;51.956;12.980;2023-05-16T04:48:49;343.07;;;293.10;;
29200;SDS011;16244;51.956;12.980;2023-05-16T04:51:18;254.80;;;227.23;;
29200;SDS011;16244;51.956;12.980;2023-05-16T04:53:46;228.00;;;201.87;;
29200;SDS011;16244;51.956;12.980;2023-05-16T04:56:14;283.37;;;253.83;;
29200;SDS011;16244;51.956;12.980;2023-05-16T04:58:42;304.60;;;274.43;;
29200;SDS011;16244;51.956;12.980;2023-05-16T05:01:11;300.20;;;268.40;;
29200;SDS011;16244;51.956;12.980;2023-05-16T05:03:38;314.73;;;281.73;;
29200;SDS011;16244;51.956;12.980;2023-05-16T05:06:06;308.57;;;277.63;;
29200;SDS011;16244;51.956;12.980;2023-05-16T05:08:36;315.67;;;284.00;;
29200;SDS011;16244;51.956;12.980;2023-05-16T05:11:04;332.70;;;298.53;;
29200;SDS011;16244;51.956;12.980;2023-05-16T05:13:32;308.90;;;277.80;;
29200;SDS011;16244;51.956;12.980;2023-05-16T05:16:00;263.90;;;236.97;;
29200;SDS011;16244;51.956;12.980;2023-05-16T05:18:29;326.07;;;294.37;;
29200;SDS011;16244;51.956;12.980;2023-05-16T05:20:58;276.83;;;249.60;;
29200;SDS011;16244;51.956;12.980;2023-05-16T05:23:26;306.50;;;275.30;;
29200;SDS011;16244;51.956;12.980;2023-05-16T05:25:56;283.77;;;255.30;;
29200;SDS011;16244;51.956;12.980;2023-05-16T05:28:26;313.33;;;266.33;;
29200;SDS011;16244;51.956;12.980;2023-05-16T05:30:54;287.67;;;258.60;;
29200;SDS011;16244;51.956;12.980;2023-05-16T05:33:25;276.77;;;250.07;;
29200;SDS011;16244;51.956;12.980;2023-05-16T05:35:54;294.90;;;265.93;;
29200;SDS011;16244;51.956;12.980;2023-05-16T05:38:22;266.17;;;239.20;;
29200;SDS011;16244;51.956;12.980;2023-05-16T05:40:50;270.07;;;243.00;;
29200;SDS011;16244;51.956;12.980;2023-05-16T05:43:19;288.20;;;259.00;;
29200;SDS011;16244;51.956;12.980;2023-05-16T05:45:48;283.10;;;254.97;;
29200;SDS011;16244;51.956;12.980;2023-05-16T05:48:16;271.20;;;242.73;;
29200;SDS011;16244;51.956;12.980;2023-05-16T05:50:44;248.20;;;222.13;;
29200;SDS011;16244;51.956;12.980;2023-05-16T05:53:12;297.40;;;269.00;;
29200;SDS011;16244;51.956;12.980;2023-05-16T05:55:40;296.13;;;266.90;;
29200;SDS011;16244;51.956;12.980;2023-05-16T05:58:08;318.40;;;284.97;;
29200;SDS011;16244;51.956;12.980;2023-05-16T06:00:37;260.97;;;235.03;;
29200;SDS011;16244;51.956;12.980;2023-05-16T06:03:05;247.30;;;222.70;;
29200;SDS011;16244;51.956;12.980;2023-05-16T06:05:33;229.00;;;204.77;;
29200;SDS011;16244;51.956;12.980;2023-05-16T06:08:01;281.80;;;253.90;;
29200;SDS011;16244;51.956;12.980;2023-05-16T06:10:29;253.20;;;227.80;;
29200;SDS011;16244;51.956;12.980;2023-05-16T06:12:57;266.90;;;240.97;;
29200;SDS011;16244;51.956;12.980;2023-05-16T06:15:25;276.90;;;249.13;;
29200;SDS011;16244;51.956;12.980;2023-05-16T06:17:55;244.57;;;221.27;;
29200;SDS011;16244;51.956;12.980;2023-05-16T06:20:24;278.40;;;251.67;;
29200;SDS011;16244;51.956;12.980;2023-05-16T06:22:52;239.43;;;215.20;;
29200;SDS011;16244;51.956;12.980;2023-05-16T06:25:20;295.37;;;265.53;;
29200;SDS011;16244;51.956;12.980;2023-05-16T06:27:48;231.90;;;207.40;;
29200;SDS011;16244;51.956;12.980;2023-05-16T06:30:16;262.97;;;237.37;;
29200;SDS011;16244;51.956;12.980;2023-05-16T06:32:44;212.90;;;190.50;;
29200;SDS011;16244;51.956;12.980;2023-05-16T06:35:13;226.40;;;202.93;;
29200;SDS011;16244;51.956;12.980;2023-05-16T06:37:41;252.13;;;226.53;;
29200;SDS011;16244;51.956;12.980;2023-05-16T06:40:10;209.03;;;186.63;;
29200;SDS011;16244;51.956;12.980;2023-05-16T06:42:38;207.27;;;186.17;;
29200;SDS011;16244;51.956;12.980;2023-05-16T06:45:07;215.63;;;193.77;;
29200;SDS011;16244;51.956;12.980;2023-05-16T06:47:35;218.67;;;195.67;;
29200;SDS011;16244;51.956;12.980;2023-05-16T06:50:03;209.33;;;187.17;;
29200;SDS011;16244;51.956;12.980;2023-05-16T06:52:33;213.93;;;191.43;;
29200;SDS011;16244;51.956;12.980;2023-05-16T06:55:01;236.20;;;211.60;;
29200;SDS011;16244;51.956;12.980;2023-05-16T06:57:29;222.07;;;198.53;;
29200;SDS011;16244;51.956;12.980;2023-05-16T06:59:57;207.63;;;185.93;;
29200;SDS011;16244;51.956;12.980;2023-05-16T07:02:25;248.20;;;221.00;;
29200;SDS011;16244;51.956;12.980;2023-05-16T07:04:53;375.67;;;334.20;;
29200;SDS011;16244;51.956;12.980;2023-05-16T07:07:21;208.27;;;186.90;;
29200;SDS011;16244;51.956;12.980;2023-05-16T07:09:51;271.10;;;244.80;;
29200;SDS011;16244;51.956;12.980;2023-05-16T07:12:19;182.03;;;162.17;;
29200;SDS011;16244;51.956;12.980;2023-05-16T07:14:47;222.37;;;198.93;;
29200;SDS011;16244;51.956;12.980;2023-05-16T07:17:14;229.30;;;206.40;;
29200;SDS011;16244;51.956;12.980;2023-05-16T07:19:43;197.20;;;176.43;;
29200;SDS011;16244;51.956;12.980;2023-05-16T07:22:11;234.57;;;209.90;;
29200;SDS011;16244;51.956;12.980;2023-05-16T07:24:39;212.43;;;191.13;;
29200;SDS011;16244;51.956;12.980;2023-05-16T07:27:08;261.13;;;229.87;;
29200;SDS011;16244;51.956;12.980;2023-05-16T07:29:36;214.47;;;190.93;;
29200;SDS011;16244;51.956;12.980;2023-05-16T07:32:05;204.57;;;184.03;;
29200;SDS011;16244;51.956;12.980;2023-05-16T07:34:33;225.97;;;202.60;;
29200;SDS011;16244;51.956;12.980;2023-05-16T07:37:01;200.90;;;180.80;;
29200;SDS011;16244;51.956;12.980;2023-05-16T07:39:30;216.83;;;193.93;;
29200;SDS011;16244;51.956;12.980;2023-05-16T07:41:58;212.10;;;190.47;;
29200;SDS011;16244;51.956;12.980;2023-05-16T07:44:27;202.73;;;181.70;;
29200;SDS011;16244;51.956;12.980;2023-05-16T07:46:56;216.70;;;195.47;;
29200;SDS011;16244;51.956;12.980;2023-05-16T07:49:24;182.13;;;163.17;;
29200;SDS011;16244;51.956;12.980;2023-05-16T07:51:52;210.77;;;188.03;;
29200;SDS011;16244;51.956;12.980;2023-05-16T07:54:20;189.80;;;170.60;;
29200;SDS011;16244;51.956;12.980;2023-05-16T07:56:48;179.20;;;160.37;;
29200;SDS011;16244;51.956;12.980;2023-05-16T07:59:16;234.97;;;212.27;;
29200;SDS011;16244;51.956;12.980;2023-05-16T08:01:46;332.97;;;277.63;;
29200;SDS011;16244;51.956;12.980;2023-05-16T08:04:14;234.17;;;211.67;;
29200;SDS011;16244;51.956;12.980;2023-05-16T08:06:42;219.37;;;196.60;;
29200;SDS011;16244;51.956;12.980;2023-05-16T08:09:10;214.23;;;193.83;;
29200;SDS011;16244;51.956;12.980;2023-05-16T08:11:38;204.53;;;184.57;;
29200;SDS011;16244;51.956;12.980;2023-05-16T08:14:06;204.73;;;183.30;;
29200;SDS011;16244;51.956;12.980;2023-05-16T08:16:34;200.90;;;180.10;;
29200;SDS011;16244;51.956;12.980;2023-05-16T08:19:03;226.93;;;204.33;;
29200;SDS011;16244;51.956;12.980;2023-05-16T08:21:31;207.57;;;185.63;;
29200;SDS011;16244;51.956;12.980;2023-05-16T08:23:59;267.17;;;238.33;;
29200;SDS011;16244;51.956;12.980;2023-05-16T08:26:28;233.13;;;209.43;;
29200;SDS011;16244;51.956;12.980;2023-05-16T08:28:56;199.90;;;178.83;;
29200;SDS011;16244;51.956;12.980;2023-05-16T08:31:23;181.90;;;161.97;;
29200;SDS011;16244;51.956;12.980;2023-05-16T08:33:51;194.20;;;174.73;;
29200;SDS011;16244;51.956;12.980;2023-05-16T08:36:21;187.50;;;168.20;;
29200;SDS011;16244;51.956;12.980;2023-05-16T08:38:49;196.10;;;176.13;;
29200;SDS011;16244;51.956;12.980;2023-05-16T08:41:17;201.93;;;181.87;;
29200;SDS011;16244;51.956;12.980;2023-05-16T08:43:45;210.83;;;190.00;;
29200;SDS011;16244;51.956;12.980;2023-05-16T08:46:13;206.33;;;183.97;;
29200;SDS011;16244;51.956;12.980;2023-05-16T08:48:41;204.23;;;183.40;;
29200;SDS011;16244;51.956;12.980;2023-05-16T08:51:09;312.40;;;278.97;;
29200;SDS011;16244;51.956;12.980;2023-05-16T08:53:42;196.80;;;173.87;;
29200;SDS011;16244;51.956;12.980;2023-05-16T08:56:11;181.10;;;157.80;;
29200;SDS011;16244;51.956;12.980;2023-05-16T08:58:40;218.27;;;195.03;;
29200;SDS011;16244;51.956;12.980;2023-05-16T09:01:08;200.63;;;180.73;;
29200;SDS011;16244;51.956;12.980;2023-05-16T09:03:36;198.53;;;177.63;;
29200;SDS011;16244;51.956;12.980;2023-05-16T09:06:05;192.73;;;172.80;;
29200;SDS011;16244;51.956;12.980;2023-05-16T09:08:33;193.17;;;172.47;;
29200;SDS011;16244;51.956;12.980;2023-05-16T09:11:02;177.93;;;159.10;;
29200;SDS011;16244;51.956;12.980;2023-05-16T09:13:30;189.70;;;169.90;;
29200;SDS011;16244;51.956;12.980;2023-05-16T09:16:08;189.93;;;169.87;;
29200;SDS011;16244;51.956;12.980;2023-05-16T09:18:36;161.20;;;144.00;;
29200;SDS011;16244;51.956;12.980;2023-05-16T09:21:05;193.47;;;172.63;;
29200;SDS011;16244;51.956;12.980;2023-05-16T09:23:33;206.10;;;184.70;;
29200;SDS011;16244;51.956;12.980;2023-05-16T09:26:03;199.23;;;178.60;;
29200;SDS011;16244;51.956;12.980;2023-05-16T09:28:32;181.23;;;157.83;;
29200;SDS011;16244;51.956;12.980;2023-05-16T09:31:00;175.37;;;156.23;;
29200;SDS011;16244;51.956;12.980;2023-05-16T09:33:28;192.40;;;171.60;;
29200;SDS011;16244;51.956;12.980;2023-05-16T09:35:57;241.17;;;204.63;;
29200;SDS011;16244;51.956;12.980;2023-05-16T09:38:25;214.83;;;192.03;;
29200;SDS011;16244;51.956;12.980;2023-05-16T09:40:53;169.60;;;151.20;;
29200;SDS011;16244;51.956;12.980;2023-05-16T09:43:24;215.47;;;193.37;;
29200;SDS011;16244;51.956;12.980;2023-05-16T09:45:52;256.50;;;231.07;;
29200;SDS011;16244;51.956;12.980;2023-05-16T09:48:20;814.87;;;489.30;;
29200;SDS011;16244;51.956;12.980;2023-05-16T09:50:50;257.73;;;226.17;;
29200;SDS011;16244;51.956;12.980;2023-05-16T09:53:24;230.80;;;206.40;;
29200;SDS011;16244;51.956;12.980;2023-05-16T09:56:00;263.50;;;236.97;;
29200;SDS011;16244;51.956;12.980;2023-05-16T09:58:30;265.03;;;239.00;;
29200;SDS011;16244;51.956;12.980;2023-05-16T10:00:59;189.63;;;169.73;;
29200;SDS011;16244;51.956;12.980;2023-05-16T10:03:28;185.17;;;163.23;;
29200;SDS011;16244;51.956;12.980;2023-05-16T10:05:56;176.60;;;157.87;;
29200;SDS011;16244;51.956;12.980;2023-05-16T10:08:25;191.07;;;170.50;;
29200;SDS011;16244;51.956;12.980;2023-05-16T10:10:53;170.97;;;152.43;;
29200;SDS011;16244;51.956;12.980;2023-05-16T10:13:22;162.43;;;145.10;;
29200;SDS011;16244;51.956;12.980;2023-05-16T10:15:52;164.27;;;142.70;;
29200;SDS011;16244;51.956;12.980;2023-05-16T10:18:22;203.33;;;164.83;;
29200;SDS011;16244;51.956;12.980;2023-05-16T10:20:52;156.83;;;129.83;;
29200;SDS011;16244;51.956;12.980;2023-05-16T10:23:22;228.70;;;203.90;;
29200;SDS011;16244;51.956;12.980;2023-05-16T10:25:52;155.13;;;127.47;;
29200;SDS011;16244;51.956;12.980;2023-05-16T10:28:21;149.97;;;127.80;;
29200;SDS011;16244;51.956;12.980;2023-05-16T10:30:51;169.50;;;150.87;;
29200;SDS011;16244;51.956;12.980;2023-05-16T10:33:20;161.80;;;144.17;;
29200;SDS011;16244;51.956;12.980;2023-05-16T10:35:48;148.33;;;129.53;;
29200;SDS011;16244;51.956;12.980;2023-05-16T10:38:17;192.37;;;171.73;;
29200;SDS011;16244;51.956;12.980;2023-05-16T10:40:46;179.30;;;160.17;;
29200;SDS011;16244;51.956;12.980;2023-05-16T10:43:21;196.10;;;163.50;;
29200;SDS011;16244;51.956;12.980;2023-05-16T10:45:53;412.20;;;346.57;;
29200;SDS011;16244;51.956;12.980;2023-05-16T10:48:28;148.97;;;116.67;;
29200;SDS011;16244;51.956;12.980;2023-05-16T10:50:56;172.30;;;152.67;;
29200;SDS011;16244;51.956;12.980;2023-05-16T10:53:31;175.90;;;155.73;;
29200;SDS011;16244;51.956;12.980;2023-05-16T10:56:08;171.30;;;152.97;;
29200;SDS011;16244;51.956;12.980;2023-05-16T10:58:43;188.90;;;165.87;;
29200;SDS011;16244;51.956;12.980;2023-05-16T11:01:16;332.87;;;276.43;;
29200;SDS011;16244;51.956;12.980;2023-05-16T11:06:43;166.53;;;144.80;;
29200;SDS011;16244;51.956;12.980;2023-05-16T11:09:19;185.43;;;165.30;;
29200;SDS011;16244;51.956;12.980;2023-05-16T11:11:52;168.77;;;148.13;;
29200;SDS011;16244;51.956;12.980;2023-05-16T11:14:21;149.63;;;130.97;;
29200;SDS011;16244;51.956;12.980;2023-05-16T11:16:51;154.87;;;134.10;;
29200;SDS011;16244;51.956;12.980;2023-05-16T11:19:29;156.17;;;132.03;;
29200;SDS011;16244;51.956;12.980;2023-05-16T11:22:04;156.27;;;127.33;;
29200;SDS011;16244;51.956;12.980;2023-05-16T11:24:32;167.00;;;143.00;;
29200;SDS011;16244;51.956;12.980;2023-05-16T11:27:03;185.53;;;165.03;;
29200;SDS011;16244;51.956;12.980;2023-05-16T11:29:31;210.53;;;180.67;;
29200;SDS011;16244;51.956;12.980;2023-05-16T11:32:01;249.60;;;223.13;;
29200;SDS011;16244;51.956;12.980;2023-05-16T11:34:30;182.10;;;162.90;;
29200;SDS011;16244;51.956;12.980;2023-05-16T11:36:59;283.10;;;229.13;;
29200;SDS011;16244;51.956;12.980;2023-05-16T11:39:28;192.37;;;172.17;;
29200;SDS011;16244;51.956;12.980;2023-05-16T11:41:56;214.60;;;192.50;;
29200;SDS011;16244;51.956;12.980;2023-05-16T11:44:24;213.33;;;189.53;;
29200;SDS011;16244;51.956;12.980;2023-05-16T11:46:52;259.60;;;232.73;;
29200;SDS011;16244;51.956;12.980;2023-05-16T11:49:22;171.77;;;150.83;;
29200;SDS011;16244;51.956;12.980;2023-05-16T11:51:52;664.53;;;471.27;;
29200;SDS011;16244;51.956;12.980;2023-05-16T11:54:22;218.40;;;195.53;;
29200;SDS011;16244;51.956;12.980;2023-05-16T11:56:50;184.27;;;164.57;;
29200;SDS011;16244;51.956;12.980;2023-05-16T11:59:18;196.43;;;176.00;;
29200;SDS011;16244;51.956;12.980;2023-05-16T12:01:47;204.23;;;183.40;;
29200;SDS011;16244;51.956;12.980;2023-05-16T12:04:15;198.57;;;166.13;;
29200;SDS011;16244;51.956;12.980;2023-05-16T12:06:56;181.00;;;160.83;;
29200;SDS011;16244;51.956;12.980;2023-05-16T12:09:24;216.00;;;192.67;;
29200;SDS011;16244;51.956;12.980;2023-05-16T12:11:52;168.17;;;144.80;;
29200;SDS011;16244;51.956;12.980;2023-05-16T12:14:20;162.00;;;123.80;;
29200;SDS011;16244;51.956;12.980;2023-05-16T12:16:49;159.43;;;139.77;;
29200;SDS011;16244;51.956;12.980;2023-05-16T12:19:19;148.73;;;127.00;;
29200;SDS011;16244;51.956;12.980;2023-05-16T12:21:52;184.43;;;143.30;;
29200;SDS011;16244;51.956;12.980;2023-05-16T12:24:20;192.40;;;165.03;;
29200;SDS011;16244;51.956;12.980;2023-05-16T12:26:48;187.93;;;166.90;;
29200;SDS011;16244;51.956;12.980;2023-05-16T12:29:16;189.23;;;163.90;;
29200;SDS011;16244;51.956;12.980;2023-05-16T12:31:51;195.10;;;171.17;;
29200;SDS011;16244;51.956;12.980;2023-05-16T12:34:19;248.03;;;222.10;;
29200;SDS011;16244;51.956;12.980;2023-05-16T12:36:49;227.13;;;203.90;;
29200;SDS011;16244;51.956;12.980;2023-05-16T12:39:19;257.37;;;230.53;;
29200;SDS011;16244;51.956;12.980;2023-05-16T12:41:50;266.53;;;240.00;;
29200;SDS011;16244;51.956;12.980;2023-05-16T12:44:18;259.63;;;233.47;;
29200;SDS011;16244;51.956;12.980;2023-05-16T12:46:48;329.17;;;297.57;;
29200;SDS011;16244;51.956;12.980;2023-05-16T12:49:18;316.77;;;287.00;;
29200;SDS011;16244;51.956;12.980;2023-05-16T12:51:47;395.90;;;359.53;;
29200;SDS011;16244;51.956;12.980;2023-05-16T12:54:16;309.87;;;279.23;;
29200;SDS011;16244;51.956;12.980;2023-05-16T12:56:45;301.13;;;272.97;;
29200;SDS011;16244;51.956;12.980;2023-05-16T12:59:13;263.67;;;238.20;;
29200;SDS011;16244;51.956;12.980;2023-05-16T13:01:41;236.23;;;212.07;;
29200;SDS011;16244;51.956;12.980;2023-05-16T13:04:11;269.63;;;242.00;;
29200;SDS011;16244;51.956;12.980;2023-05-16T13:06:43;253.50;;;228.37;;
29200;SDS011;16244;51.956;12.980;2023-05-16T13:09:12;244.53;;;219.53;;
29200;SDS011;16244;51.956;12.980;2023-05-16T13:11:40;359.03;;;320.90;;
29200;SDS011;16244;51.956;12.980;2023-05-16T13:14:09;244.83;;;219.50;;
29200;SDS011;16244;51.956;12.980;2023-05-16T13:16:37;217.17;;;193.60;;
29200;SDS011;16244;51.956;12.980;2023-05-16T13:19:05;281.83;;;253.60;;
29200;SDS011;16244;51.956;12.980;2023-05-16T13:21:34;189.40;;;168.37;;
29200;SDS011;16244;51.956;12.980;2023-05-16T13:24:02;210.00;;;187.87;;
29200;SDS011;16244;51.956;12.980;2023-05-16T13:26:30;228.67;;;205.70;;
29200;SDS011;16244;51.956;12.980;2023-05-16T13:28:58;252.00;;;226.73;;
29200;SDS011;16244;51.956;12.980;2023-05-16T13:31:28;217.27;;;194.40;;
29200;SDS011;16244;51.956;12.980;2023-05-16T13:33:56;265.47;;;238.53;;
29200;SDS011;16244;51.956;12.980;2023-05-16T13:36:24;255.00;;;228.73;;
29200;SDS011;16244;51.956;12.980;2023-05-16T13:38:52;219.37;;;195.63;;
29200;SDS011;16244;51.956;12.980;2023-05-16T13:41:20;221.90;;;198.70;;
29200;SDS011;16244;51.956;12.980;2023-05-16T13:43:48;258.67;;;232.17;;
29200;SDS011;16244;51.956;12.980;2023-05-16T13:46:16;217.83;;;195.37;;
29200;SDS011;16244;51.956;12.980;2023-05-16T13:48:46;194.93;;;173.57;;
29200;SDS011;16244;51.956;12.980;2023-05-16T13:51:14;234.07;;;210.33;;
29200;SDS011;16244;51.956;12.980;2023-05-16T13:53:42;305.30;;;274.57;;
29200;SDS011;16244;51.956;12.980;2023-05-16T13:56:10;267.40;;;238.87;;